sensor_id;sensor_type;location;lat;lon;timestamp;P1;durP1;ratioP1;P2;durP2;ratioP2
73919;SDS011;62266;53.348;-1.496;2022-09-09T00:06:31;36.78;;;18.67;;
73919;SDS011;62266;53.348;-1.496;2022-09-09T00:09:08;37.33;;;18.10;;
73919;SDS011;62266;53.348;-1.496;2022-09-09T00:11:43;35.92;;;17.20;;
73919;SDS011;62266;53.348;-1.496;2022-09-09T00:14:37;37.15;;;18.02;;
73919;SDS011;62266;53.348;-1.496;2022-09-09T00:17:09;38.38;;;19.25;;
73919;SDS011;62266;53.348;-1.496;2022-09-09T00:19:46;38.35;;;18.85;;
73919;SDS011;62266;53.348;-1.496;2022-09-09T00:22:24;36.93;;;18.90;;
73919;SDS011;62266;53.348;-1.496;2022-09-09T00:24:55;38.88;;;19.38;;
73919;SDS011;62266;53.348;-1.496;2022-09-09T00:27:41;37.85;;;17.80;;
73919;SDS011;62266;53.348;-1.496;2022-09-09T00:32:36;38.87;;;18.73;;
73919;SDS011;62266;53.348;-1.496;2022-09-09T00:37:56;40.22;;;18.08;;
73919;SDS011;62266;53.348;-1.496;2022-09-09T00:40:40;36.17;;;18.20;;
73919;SDS011;62266;53.348;-1.496;2022-09-09T00:43:24;36.88;;;18.92;;
73919;SDS011;62266;53.348;-1.496;2022-09-09T00:51:25;37.17;;;17.73;;
73919;SDS011;62266;53.348;-1.496;2022-09-09T00:56:50;39.47;;;20.08;;
73919;SDS011;62266;53.348;-1.496;2022-09-09T01:00:15;41.00;;;19.48;;
73919;SDS011;62266;53.348;-1.496;2022-09-09T01:05:13;37.65;;;18.67;;
73919;SDS011;62266;53.348;-1.496;2022-09-09T01:07:47;43.73;;;19.63;;
73919;SDS011;62266;53.348;-1.496;2022-09-09T01:10:31;41.90;;;20.75;;
73919;SDS011;62266;53.348;-1.496;2022-09-09T01:13:04;41.83;;;21.95;;
73919;SDS011;62266;53.348;-1.496;2022-09-09T01:15:38;47.40;;;21.17;;
73919;SDS011;62266;53.348;-1.496;2022-09-09T01:18:05;42.83;;;20.85;;
73919;SDS011;62266;53.348;-1.496;2022-09-09T01:20:43;40.07;;;19.53;;
73919;SDS011;62266;53.348;-1.496;2022-09-09T01:26:18;40.05;;;19.95;;
73919;SDS011;62266;53.348;-1.496;2022-09-09T01:28:48;36.22;;;18.77;;
73919;SDS011;62266;53.348;-1.496;2022-09-09T01:34:10;41.87;;;19.90;;
73919;SDS011;62266;53.348;-1.496;2022-09-09T01:36:52;47.92;;;19.73;;
73919;SDS011;62266;53.348;-1.496;2022-09-09T01:39:19;48.63;;;20.58;;
73919;SDS011;62266;53.348;-1.496;2022-09-09T01:41:46;46.72;;;20.67;;
73919;SDS011;62266;53.348;-1.496;2022-09-09T01:44:11;43.30;;;20.50;;
73919;SDS011;62266;53.348;-1.496;2022-09-09T01:46:40;44.67;;;20.35;;
73919;SDS011;62266;53.348;-1.496;2022-09-09T01:49:06;46.63;;;21.13;;
73919;SDS011;62266;53.348;-1.496;2022-09-09T01:51:32;47.83;;;21.83;;
73919;SDS011;62266;53.348;-1.496;2022-09-09T01:53:59;46.70;;;19.95;;
73919;SDS011;62266;53.348;-1.496;2022-09-09T01:59:30;47.78;;;21.15;;
73919;SDS011;62266;53.348;-1.496;2022-09-09T02:02:10;53.70;;;21.20;;
73919;SDS011;62266;53.348;-1.496;2022-09-09T02:04:54;46.95;;;19.42;;
73919;SDS011;62266;53.348;-1.496;2022-09-09T02:09:50;50.47;;;21.23;;
73919;SDS011;62266;53.348;-1.496;2022-09-09T02:12:27;50.90;;;20.63;;
73919;SDS011;62266;53.348;-1.496;2022-09-09T02:14:57;51.10;;;19.80;;
73919;SDS011;62266;53.348;-1.496;2022-09-09T02:17:30;54.35;;;21.38;;
73919;SDS011;62266;53.348;-1.496;2022-09-09T02:20:00;48.53;;;19.20;;
73919;SDS011;62266;53.348;-1.496;2022-09-09T02:22:32;50.00;;;20.73;;
73919;SDS011;62266;53.348;-1.496;2022-09-09T02:24:59;49.88;;;20.98;;
73919;SDS011;62266;53.348;-1.496;2022-09-09T02:27:26;52.67;;;19.90;;
73919;SDS011;62266;53.348;-1.496;2022-09-09T02:29:52;50.20;;;21.88;;
73919;SDS011;62266;53.348;-1.496;2022-09-09T02:32:20;47.85;;;20.13;;
73919;SDS011;62266;53.348;-1.496;2022-09-09T02:34:55;42.80;;;18.42;;
73919;SDS011;62266;53.348;-1.496;2022-09-09T02:37:24;44.00;;;19.25;;
73919;SDS011;62266;53.348;-1.496;2022-09-09T02:39:53;43.63;;;17.90;;
73919;SDS011;62266;53.348;-1.496;2022-09-09T02:42:19;40.83;;;18.33;;
73919;SDS011;62266;53.348;-1.496;2022-09-09T02:44:45;39.87;;;18.43;;
73919;SDS011;62266;53.348;-1.496;2022-09-09T02:57:52;43.80;;;19.07;;
73919;SDS011;62266;53.348;-1.496;2022-09-09T03:00:25;43.08;;;18.60;;
73919;SDS011;62266;53.348;-1.496;2022-09-09T03:02:55;36.15;;;16.73;;
73919;SDS011;62266;53.348;-1.496;2022-09-09T03:05:22;41.42;;;18.95;;
73919;SDS011;62266;53.348;-1.496;2022-09-09T03:07:47;41.57;;;18.70;;
73919;SDS011;62266;53.348;-1.496;2022-09-09T03:10:14;39.83;;;17.65;;
73919;SDS011;62266;53.348;-1.496;2022-09-09T03:12:40;37.93;;;17.10;;
73919;SDS011;62266;53.348;-1.496;2022-09-09T03:15:05;37.50;;;17.10;;
73919;SDS011;62266;53.348;-1.496;2022-09-09T03:17:32;35.45;;;17.20;;
73919;SDS011;62266;53.348;-1.496;2022-09-09T03:19:57;37.20;;;17.50;;
73919;SDS011;62266;53.348;-1.496;2022-09-09T03:22:24;35.43;;;17.47;;
73919;SDS011;62266;53.348;-1.496;2022-09-09T03:24:52;37.45;;;17.27;;
73919;SDS011;62266;53.348;-1.496;2022-09-09T03:27:18;39.13;;;18.17;;
73919;SDS011;62266;53.348;-1.496;2022-09-09T03:29:44;33.42;;;16.17;;
73919;SDS011;62266;53.348;-1.496;2022-09-09T03:32:11;34.38;;;17.08;;
73919;SDS011;62266;53.348;-1.496;2022-09-09T03:34:37;39.10;;;17.30;;
73919;SDS011;62266;53.348;-1.496;2022-09-09T03:37:05;41.25;;;17.67;;
73919;SDS011;62266;53.348;-1.496;2022-09-09T03:39:31;37.33;;;18.83;;
73919;SDS011;62266;53.348;-1.496;2022-09-09T03:41:56;33.80;;;17.33;;
73919;SDS011;62266;53.348;-1.496;2022-09-09T03:44:22;36.43;;;17.33;;
73919;SDS011;62266;53.348;-1.496;2022-09-09T03:46:50;34.90;;;16.80;;
73919;SDS011;62266;53.348;-1.496;2022-09-09T03:49:15;32.40;;;16.40;;
73919;SDS011;62266;53.348;-1.496;2022-09-09T03:51:41;36.72;;;16.08;;
73919;SDS011;62266;53.348;-1.496;2022-09-09T03:54:07;34.42;;;17.20;;
73919;SDS011;62266;53.348;-1.496;2022-09-09T03:56:35;36.47;;;15.93;;
73919;SDS011;62266;53.348;-1.496;2022-09-09T03:59:01;34.47;;;16.57;;
73919;SDS011;62266;53.348;-1.496;2022-09-09T04:01:27;31.75;;;16.30;;
73919;SDS011;62266;53.348;-1.496;2022-09-09T04:03:53;37.80;;;17.08;;
73919;SDS011;62266;53.348;-1.496;2022-09-09T04:06:20;35.47;;;17.10;;
73919;SDS011;62266;53.348;-1.496;2022-09-09T04:08:47;29.50;;;15.27;;
73919;SDS011;62266;53.348;-1.496;2022-09-09T04:11:14;32.33;;;16.25;;
73919;SDS011;62266;53.348;-1.496;2022-09-09T04:13:40;30.10;;;15.70;;
73919;SDS011;62266;53.348;-1.496;2022-09-09T04:16:06;29.85;;;15.00;;
73919;SDS011;62266;53.348;-1.496;2022-09-09T04:18:33;28.90;;;14.85;;
73919;SDS011;62266;53.348;-1.496;2022-09-09T04:21:00;28.30;;;14.33;;
73919;SDS011;62266;53.348;-1.496;2022-09-09T04:23:27;30.35;;;15.30;;
73919;SDS011;62266;53.348;-1.496;2022-09-09T04:25:54;26.77;;;14.60;;
73919;SDS011;62266;53.348;-1.496;2022-09-09T04:28:21;23.98;;;12.95;;
73919;SDS011;62266;53.348;-1.496;2022-09-09T04:30:48;25.52;;;14.07;;
73919;SDS011;62266;53.348;-1.496;2022-09-09T04:33:13;25.60;;;13.77;;
73919;SDS011;62266;53.348;-1.496;2022-09-09T04:35:45;28.70;;;14.55;;
73919;SDS011;62266;53.348;-1.496;2022-09-09T04:38:12;25.00;;;14.43;;
73919;SDS011;62266;53.348;-1.496;2022-09-09T04:40:38;24.48;;;13.00;;
73919;SDS011;62266;53.348;-1.496;2022-09-09T04:43:08;24.30;;;12.52;;
73919;SDS011;62266;53.348;-1.496;2022-09-09T04:45:33;23.73;;;13.10;;
73919;SDS011;62266;53.348;-1.496;2022-09-09T04:47:59;23.87;;;12.47;;
73919;SDS011;62266;53.348;-1.496;2022-09-09T04:50:27;21.27;;;12.15;;
73919;SDS011;62266;53.348;-1.496;2022-09-09T04:52:53;25.95;;;13.32;;
73919;SDS011;62266;53.348;-1.496;2022-09-09T04:55:19;22.80;;;13.47;;
73919;SDS011;62266;53.348;-1.496;2022-09-09T04:57:45;23.90;;;12.48;;
73919;SDS011;62266;53.348;-1.496;2022-09-09T05:00:10;25.33;;;12.00;;
73919;SDS011;62266;53.348;-1.496;2022-09-09T05:02:39;18.05;;;10.98;;
73919;SDS011;62266;53.348;-1.496;2022-09-09T05:05:05;21.92;;;11.48;;
73919;SDS011;62266;53.348;-1.496;2022-09-09T05:07:31;21.35;;;12.07;;
73919;SDS011;62266;53.348;-1.496;2022-09-09T05:09:57;19.60;;;11.43;;
73919;SDS011;62266;53.348;-1.496;2022-09-09T05:12:23;19.58;;;10.48;;
73919;SDS011;62266;53.348;-1.496;2022-09-09T05:14:52;27.17;;;12.65;;
73919;SDS011;62266;53.348;-1.496;2022-09-09T05:17:18;23.05;;;11.98;;
73919;SDS011;62266;53.348;-1.496;2022-09-09T05:19:43;22.90;;;11.90;;
73919;SDS011;62266;53.348;-1.496;2022-09-09T05:22:09;21.10;;;11.67;;
73919;SDS011;62266;53.348;-1.496;2022-09-09T05:24:36;22.75;;;12.73;;
73919;SDS011;62266;53.348;-1.496;2022-09-09T05:27:01;22.10;;;11.88;;
73919;SDS011;62266;53.348;-1.496;2022-09-09T05:29:27;24.30;;;12.30;;
73919;SDS011;62266;53.348;-1.496;2022-09-09T05:31:53;22.48;;;12.75;;
73919;SDS011;62266;53.348;-1.496;2022-09-09T05:34:19;23.58;;;12.63;;
73919;SDS011;62266;53.348;-1.496;2022-09-09T05:36:45;23.15;;;12.57;;
73919;SDS011;62266;53.348;-1.496;2022-09-09T05:39:12;26.40;;;12.80;;
73919;SDS011;62266;53.348;-1.496;2022-09-09T05:41:37;24.45;;;12.18;;
73919;SDS011;62266;53.348;-1.496;2022-09-09T05:44:03;21.80;;;12.20;;
73919;SDS011;62266;53.348;-1.496;2022-09-09T05:46:29;23.67;;;12.73;;
73919;SDS011;62266;53.348;-1.496;2022-09-09T05:48:55;25.03;;;13.20;;
73919;SDS011;62266;53.348;-1.496;2022-09-09T05:51:21;22.08;;;11.95;;
73919;SDS011;62266;53.348;-1.496;2022-09-09T05:53:49;22.90;;;11.48;;
73919;SDS011;62266;53.348;-1.496;2022-09-09T05:56:20;21.23;;;11.83;;
73919;SDS011;62266;53.348;-1.496;2022-09-09T05:58:48;26.52;;;13.32;;
73919;SDS011;62266;53.348;-1.496;2022-09-09T06:01:16;23.88;;;12.80;;
73919;SDS011;62266;53.348;-1.496;2022-09-09T06:03:44;25.02;;;14.10;;
73919;SDS011;62266;53.348;-1.496;2022-09-09T06:06:11;28.13;;;14.25;;
73919;SDS011;62266;53.348;-1.496;2022-09-09T06:08:39;24.57;;;13.17;;
73919;SDS011;62266;53.348;-1.496;2022-09-09T06:11:06;28.33;;;13.60;;
73919;SDS011;62266;53.348;-1.496;2022-09-09T06:13:33;26.90;;;13.45;;
73919;SDS011;62266;53.348;-1.496;2022-09-09T06:16:00;27.08;;;13.68;;
73919;SDS011;62266;53.348;-1.496;2022-09-09T06:18:26;26.70;;;13.90;;
73919;SDS011;62266;53.348;-1.496;2022-09-09T06:20:56;26.87;;;13.93;;
73919;SDS011;62266;53.348;-1.496;2022-09-09T06:23:32;26.73;;;13.32;;
73919;SDS011;62266;53.348;-1.496;2022-09-09T06:26:04;24.43;;;13.03;;
73919;SDS011;62266;53.348;-1.496;2022-09-09T06:28:31;22.20;;;13.00;;
73919;SDS011;62266;53.348;-1.496;2022-09-09T06:30:57;26.63;;;14.35;;
73919;SDS011;62266;53.348;-1.496;2022-09-09T06:33:24;29.20;;;14.43;;
73919;SDS011;62266;53.348;-1.496;2022-09-09T06:35:53;27.70;;;15.10;;
73919;SDS011;62266;53.348;-1.496;2022-09-09T06:38:19;27.73;;;13.65;;
73919;SDS011;62266;53.348;-1.496;2022-09-09T06:40:51;24.73;;;14.32;;
73919;SDS011;62266;53.348;-1.496;2022-09-09T06:43:21;24.35;;;12.93;;
73919;SDS011;62266;53.348;-1.496;2022-09-09T06:46:02;27.70;;;13.93;;
73919;SDS011;62266;53.348;-1.496;2022-09-09T06:48:30;23.52;;;13.60;;
73919;SDS011;62266;53.348;-1.496;2022-09-09T06:51:00;29.92;;;14.75;;
73919;SDS011;62266;53.348;-1.496;2022-09-09T06:53:29;24.95;;;13.50;;
73919;SDS011;62266;53.348;-1.496;2022-09-09T06:55:58;27.02;;;13.52;;
73919;SDS011;62266;53.348;-1.496;2022-09-09T06:58:26;23.73;;;14.20;;
73919;SDS011;62266;53.348;-1.496;2022-09-09T07:00:51;26.67;;;14.23;;
73919;SDS011;62266;53.348;-1.496;2022-09-09T07:03:17;28.25;;;14.30;;
73919;SDS011;62266;53.348;-1.496;2022-09-09T07:05:43;25.23;;;14.63;;
73919;SDS011;62266;53.348;-1.496;2022-09-09T07:08:10;25.35;;;13.50;;
73919;SDS011;62266;53.348;-1.496;2022-09-09T07:10:38;25.07;;;13.70;;
73919;SDS011;62266;53.348;-1.496;2022-09-09T07:13:03;25.77;;;14.15;;
73919;SDS011;62266;53.348;-1.496;2022-09-09T07:15:29;27.77;;;13.73;;
73919;SDS011;62266;53.348;-1.496;2022-09-09T07:17:55;25.77;;;14.30;;
73919;SDS011;62266;53.348;-1.496;2022-09-09T07:20:20;24.85;;;12.93;;
73919;SDS011;62266;53.348;-1.496;2022-09-09T07:22:46;25.37;;;12.80;;
73919;SDS011;62266;53.348;-1.496;2022-09-09T07:25:12;26.23;;;13.90;;
73919;SDS011;62266;53.348;-1.496;2022-09-09T07:27:39;22.98;;;13.10;;
73919;SDS011;62266;53.348;-1.496;2022-09-09T07:30:05;24.48;;;13.68;;
73919;SDS011;62266;53.348;-1.496;2022-09-09T07:32:35;25.77;;;13.73;;
73919;SDS011;62266;53.348;-1.496;2022-09-09T07:35:01;26.35;;;14.02;;
73919;SDS011;62266;53.348;-1.496;2022-09-09T07:37:26;25.07;;;13.93;;
73919;SDS011;62266;53.348;-1.496;2022-09-09T07:39:52;25.43;;;12.80;;
73919;SDS011;62266;53.348;-1.496;2022-09-09T07:42:18;21.02;;;11.93;;
73919;SDS011;62266;53.348;-1.496;2022-09-09T07:44:44;24.93;;;13.90;;
73919;SDS011;62266;53.348;-1.496;2022-09-09T07:47:10;25.33;;;12.88;;
73919;SDS011;62266;53.348;-1.496;2022-09-09T07:49:36;24.27;;;13.00;;
73919;SDS011;62266;53.348;-1.496;2022-09-09T07:52:01;21.83;;;11.97;;
73919;SDS011;62266;53.348;-1.496;2022-09-09T07:54:28;23.65;;;12.48;;
73919;SDS011;62266;53.348;-1.496;2022-09-09T07:56:54;21.33;;;12.07;;
73919;SDS011;62266;53.348;-1.496;2022-09-09T07:59:20;21.00;;;12.30;;
73919;SDS011;62266;53.348;-1.496;2022-09-09T08:01:46;24.20;;;12.63;;
73919;SDS011;62266;53.348;-1.496;2022-09-09T08:04:14;21.98;;;11.40;;
73919;SDS011;62266;53.348;-1.496;2022-09-09T08:06:46;26.45;;;13.88;;
73919;SDS011;62266;53.348;-1.496;2022-09-09T08:09:14;23.17;;;12.55;;
73919;SDS011;62266;53.348;-1.496;2022-09-09T08:11:40;24.17;;;12.93;;
73919;SDS011;62266;53.348;-1.496;2022-09-09T08:16:55;23.23;;;12.38;;
73919;SDS011;62266;53.348;-1.496;2022-09-09T08:19:22;21.23;;;12.45;;
73919;SDS011;62266;53.348;-1.496;2022-09-09T08:21:51;23.95;;;11.77;;
73919;SDS011;62266;53.348;-1.496;2022-09-09T08:24:17;21.53;;;11.60;;
73919;SDS011;62266;53.348;-1.496;2022-09-09T08:26:45;19.75;;;11.05;;
73919;SDS011;62266;53.348;-1.496;2022-09-09T08:29:32;16.23;;;10.85;;
73919;SDS011;62266;53.348;-1.496;2022-09-09T08:31:58;19.17;;;10.55;;
73919;SDS011;62266;53.348;-1.496;2022-09-09T08:34:24;18.48;;;10.82;;
73919;SDS011;62266;53.348;-1.496;2022-09-09T08:36:52;17.37;;;11.03;;
73919;SDS011;62266;53.348;-1.496;2022-09-09T08:39:19;17.95;;;10.52;;
73919;SDS011;62266;53.348;-1.496;2022-09-09T08:45:25;14.50;;;8.27;;
73919;SDS011;62266;53.348;-1.496;2022-09-09T08:48:52;14.48;;;8.25;;
73919;SDS011;62266;53.348;-1.496;2022-09-09T08:51:26;16.27;;;7.77;;
73919;SDS011;62266;53.348;-1.496;2022-09-09T08:53:53;12.80;;;7.10;;
73919;SDS011;62266;53.348;-1.496;2022-09-09T08:56:21;12.57;;;7.30;;
73919;SDS011;62266;53.348;-1.496;2022-09-09T08:58:54;13.70;;;7.05;;
73919;SDS011;62266;53.348;-1.496;2022-09-09T09:10:24;9.85;;;6.22;;
73919;SDS011;62266;53.348;-1.496;2022-09-09T09:12:47;17.58;;;7.43;;
73919;SDS011;62266;53.348;-1.496;2022-09-09T09:15:16;15.40;;;7.47;;
73919;SDS011;62266;53.348;-1.496;2022-09-09T09:17:43;13.80;;;7.03;;
73919;SDS011;62266;53.348;-1.496;2022-09-09T09:20:13;13.38;;;6.88;;
73919;SDS011;62266;53.348;-1.496;2022-09-09T09:22:51;10.30;;;6.32;;
73919;SDS011;62266;53.348;-1.496;2022-09-09T09:28:03;20.40;;;8.48;;
73919;SDS011;62266;53.348;-1.496;2022-09-09T09:30:42;8.50;;;5.03;;
73919;SDS011;62266;53.348;-1.496;2022-09-09T09:35:52;7.38;;;3.80;;
73919;SDS011;62266;53.348;-1.496;2022-09-09T09:38:20;5.67;;;3.20;;
73919;SDS011;62266;53.348;-1.496;2022-09-09T09:40:57;7.00;;;3.13;;
73919;SDS011;62266;53.348;-1.496;2022-09-09T09:43:27;8.65;;;2.90;;
73919;SDS011;62266;53.348;-1.496;2022-09-09T09:45:54;6.40;;;3.13;;
73919;SDS011;62266;53.348;-1.496;2022-09-09T09:48:20;7.47;;;3.50;;
73919;SDS011;62266;53.348;-1.496;2022-09-09T09:50:47;7.47;;;2.90;;
73919;SDS011;62266;53.348;-1.496;2022-09-09T09:55:56;4.90;;;2.70;;
73919;SDS011;62266;53.348;-1.496;2022-09-09T09:58:26;8.48;;;2.20;;
73919;SDS011;62266;53.348;-1.496;2022-09-09T10:00:53;3.63;;;2.40;;
73919;SDS011;62266;53.348;-1.496;2022-09-09T10:03:37;6.35;;;2.65;;
73919;SDS011;62266;53.348;-1.496;2022-09-09T10:06:05;7.22;;;2.40;;
73919;SDS011;62266;53.348;-1.496;2022-09-09T10:08:33;4.87;;;2.07;;
73919;SDS011;62266;53.348;-1.496;2022-09-09T10:13:52;7.05;;;2.40;;
73919;SDS011;62266;53.348;-1.496;2022-09-09T10:19:33;7.32;;;2.35;;
73919;SDS011;62266;53.348;-1.496;2022-09-09T10:32:10;5.85;;;2.47;;
73919;SDS011;62266;53.348;-1.496;2022-09-09T10:40:43;8.20;;;3.10;;
73919;SDS011;62266;53.348;-1.496;2022-09-09T10:53:53;6.07;;;2.40;;
73919;SDS011;62266;53.348;-1.496;2022-09-09T10:56:29;6.38;;;2.55;;
73919;SDS011;62266;53.348;-1.496;2022-09-09T10:59:07;5.90;;;2.35;;
73919;SDS011;62266;53.348;-1.496;2022-09-09T11:01:40;3.80;;;1.95;;
73919;SDS011;62266;53.348;-1.496;2022-09-09T11:04:32;3.42;;;2.08;;
73919;SDS011;62266;53.348;-1.496;2022-09-09T11:06:59;6.10;;;2.13;;
73919;SDS011;62266;53.348;-1.496;2022-09-09T11:09:31;5.25;;;2.00;;
73919;SDS011;62266;53.348;-1.496;2022-09-09T11:11:59;6.55;;;1.98;;
73919;SDS011;62266;53.348;-1.496;2022-09-09T11:14:31;5.00;;;2.25;;
73919;SDS011;62266;53.348;-1.496;2022-09-09T11:20:13;4.87;;;1.90;;
73919;SDS011;62266;53.348;-1.496;2022-09-09T11:22:43;5.50;;;1.77;;
73919;SDS011;62266;53.348;-1.496;2022-09-09T11:25:19;4.93;;;1.80;;
73919;SDS011;62266;53.348;-1.496;2022-09-09T11:30:20;5.90;;;1.52;;
73919;SDS011;62266;53.348;-1.496;2022-09-09T11:41:12;2.80;;;1.42;;
73919;SDS011;62266;53.348;-1.496;2022-09-09T11:43:39;3.22;;;1.58;;
73919;SDS011;62266;53.348;-1.496;2022-09-09T11:46:07;5.57;;;1.60;;
73919;SDS011;62266;53.348;-1.496;2022-09-09T11:48:40;3.17;;;1.30;;
73919;SDS011;62266;53.348;-1.496;2022-09-09T11:51:12;3.70;;;1.10;;
73919;SDS011;62266;53.348;-1.496;2022-09-09T11:54:03;4.07;;;1.00;;
73919;SDS011;62266;53.348;-1.496;2022-09-09T11:56:54;4.28;;;0.70;;
73919;SDS011;62266;53.348;-1.496;2022-09-09T11:59:32;3.37;;;0.90;;
73919;SDS011;62266;53.348;-1.496;2022-09-09T12:07:32;4.70;;;0.80;;
73919;SDS011;62266;53.348;-1.496;2022-09-09T12:10:02;4.13;;;1.10;;
73919;SDS011;62266;53.348;-1.496;2022-09-09T12:12:35;3.63;;;1.15;;
73919;SDS011;62266;53.348;-1.496;2022-09-09T12:17:40;3.28;;;1.20;;
73919;SDS011;62266;53.348;-1.496;2022-09-09T12:20:21;3.37;;;1.07;;
73919;SDS011;62266;53.348;-1.496;2022-09-09T12:31:31;6.72;;;1.85;;
73919;SDS011;62266;53.348;-1.496;2022-09-09T12:34:04;6.60;;;1.97;;
73919;SDS011;62266;53.348;-1.496;2022-09-09T12:36:45;4.60;;;1.90;;
73919;SDS011;62266;53.348;-1.496;2022-09-09T12:39:19;5.05;;;1.90;;
73919;SDS011;62266;53.348;-1.496;2022-09-09T12:41:52;5.65;;;1.55;;
73919;SDS011;62266;53.348;-1.496;2022-09-09T12:44:22;4.90;;;1.75;;
73919;SDS011;62266;53.348;-1.496;2022-09-09T12:46:48;6.57;;;2.43;;
73919;SDS011;62266;53.348;-1.496;2022-09-09T12:49:24;6.63;;;2.67;;
73919;SDS011;62266;53.348;-1.496;2022-09-09T12:51:51;3.97;;;2.00;;
73919;SDS011;62266;53.348;-1.496;2022-09-09T12:54:17;4.90;;;1.90;;
73919;SDS011;62266;53.348;-1.496;2022-09-09T12:56:45;6.00;;;1.70;;
73919;SDS011;62266;53.348;-1.496;2022-09-09T12:59:34;4.18;;;1.73;;
73919;SDS011;62266;53.348;-1.496;2022-09-09T13:02:02;3.53;;;1.60;;
73919;SDS011;62266;53.348;-1.496;2022-09-09T13:04:34;2.10;;;1.30;;
73919;SDS011;62266;53.348;-1.496;2022-09-09T13:07:06;3.08;;;1.30;;
73919;SDS011;62266;53.348;-1.496;2022-09-09T13:09:36;3.55;;;1.40;;
73919;SDS011;62266;53.348;-1.496;2022-09-09T13:12:02;3.57;;;1.20;;
73919;SDS011;62266;53.348;-1.496;2022-09-09T13:14:30;3.40;;;1.20;;
73919;SDS011;62266;53.348;-1.496;2022-09-09T13:17:00;3.58;;;1.20;;
73919;SDS011;62266;53.348;-1.496;2022-09-09T13:19:29;4.23;;;0.73;;
73919;SDS011;62266;53.348;-1.496;2022-09-09T13:22:21;2.92;;;0.70;;
73919;SDS011;62266;53.348;-1.496;2022-09-09T13:25:00;1.60;;;0.68;;
73919;SDS011;62266;53.348;-1.496;2022-09-09T13:27:32;2.17;;;0.40;;
73919;SDS011;62266;53.348;-1.496;2022-09-09T13:29:59;1.38;;;0.50;;
73919;SDS011;62266;53.348;-1.496;2022-09-09T13:32:25;1.00;;;0.30;;
73919;SDS011;62266;53.348;-1.496;2022-09-09T13:34:53;1.88;;;0.20;;
73919;SDS011;62266;53.348;-1.496;2022-09-09T13:37:29;2.35;;;0.52;;
73919;SDS011;62266;53.348;-1.496;2022-09-09T13:39:57;1.10;;;0.30;;
73919;SDS011;62266;53.348;-1.496;2022-09-09T13:42:27;1.63;;;0.40;;
73919;SDS011;62266;53.348;-1.496;2022-09-09T13:44:55;1.25;;;0.60;;
73919;SDS011;62266;53.348;-1.496;2022-09-09T13:47:22;3.10;;;0.80;;
73919;SDS011;62266;53.348;-1.496;2022-09-09T13:49:53;1.67;;;0.60;;
73919;SDS011;62266;53.348;-1.496;2022-09-09T13:52:19;2.47;;;0.80;;
73919;SDS011;62266;53.348;-1.496;2022-09-09T13:54:48;2.80;;;0.80;;
73919;SDS011;62266;53.348;-1.496;2022-09-09T13:57:16;2.47;;;0.93;;
73919;SDS011;62266;53.348;-1.496;2022-09-09T13:59:44;3.03;;;0.80;;
73919;SDS011;62266;53.348;-1.496;2022-09-09T14:02:10;1.58;;;0.65;;
73919;SDS011;62266;53.348;-1.496;2022-09-09T14:04:35;1.87;;;1.00;;
73919;SDS011;62266;53.348;-1.496;2022-09-09T14:07:01;2.13;;;0.60;;
73919;SDS011;62266;53.348;-1.496;2022-09-09T14:09:27;2.38;;;0.80;;
73919;SDS011;62266;53.348;-1.496;2022-09-09T14:11:53;1.73;;;0.60;;
73919;SDS011;62266;53.348;-1.496;2022-09-09T14:14:20;1.20;;;0.52;;
73919;SDS011;62266;53.348;-1.496;2022-09-09T14:16:45;2.55;;;0.60;;
73919;SDS011;62266;53.348;-1.496;2022-09-09T14:19:14;1.10;;;0.50;;
73919;SDS011;62266;53.348;-1.496;2022-09-09T14:21:45;3.47;;;0.60;;
73919;SDS011;62266;53.348;-1.496;2022-09-09T14:24:11;1.95;;;0.60;;
73919;SDS011;62266;53.348;-1.496;2022-09-09T14:26:39;0.65;;;0.35;;
73919;SDS011;62266;53.348;-1.496;2022-09-09T14:29:06;1.27;;;0.50;;
73919;SDS011;62266;53.348;-1.496;2022-09-09T14:31:31;2.53;;;0.60;;
73919;SDS011;62266;53.348;-1.496;2022-09-09T14:33:57;3.50;;;0.85;;
73919;SDS011;62266;53.348;-1.496;2022-09-09T14:36:24;4.10;;;1.07;;
73919;SDS011;62266;53.348;-1.496;2022-09-09T14:38:49;2.58;;;0.60;;
73919;SDS011;62266;53.348;-1.496;2022-09-09T14:41:16;1.40;;;0.50;;
73919;SDS011;62266;53.348;-1.496;2022-09-09T14:43:43;2.80;;;0.77;;
73919;SDS011;62266;53.348;-1.496;2022-09-09T14:46:10;1.45;;;0.30;;
73919;SDS011;62266;53.348;-1.496;2022-09-09T14:48:36;1.25;;;0.35;;
73919;SDS011;62266;53.348;-1.496;2022-09-09T14:53:33;1.88;;;0.45;;
73919;SDS011;62266;53.348;-1.496;2022-09-09T14:56:05;1.77;;;0.40;;
73919;SDS011;62266;53.348;-1.496;2022-09-09T14:58:35;0.97;;;0.40;;
73919;SDS011;62266;53.348;-1.496;2022-09-09T15:01:04;1.75;;;0.45;;
73919;SDS011;62266;53.348;-1.496;2022-09-09T15:03:31;1.50;;;0.47;;
73919;SDS011;62266;53.348;-1.496;2022-09-09T15:05:57;3.00;;;0.60;;
73919;SDS011;62266;53.348;-1.496;2022-09-09T15:08:23;1.67;;;0.30;;
73919;SDS011;62266;53.348;-1.496;2022-09-09T15:10:50;2.83;;;0.40;;
73919;SDS011;62266;53.348;-1.496;2022-09-09T15:13:15;1.15;;;0.22;;
73919;SDS011;62266;53.348;-1.496;2022-09-09T15:15:43;1.67;;;0.20;;
73919;SDS011;62266;53.348;-1.496;2022-09-09T15:18:09;0.47;;;0.20;;
73919;SDS011;62266;53.348;-1.496;2022-09-09T15:20:35;1.10;;;0.40;;
73919;SDS011;62266;53.348;-1.496;2022-09-09T15:23:02;2.03;;;0.40;;
73919;SDS011;62266;53.348;-1.496;2022-09-09T15:25:28;1.35;;;0.20;;
73919;SDS011;62266;53.348;-1.496;2022-09-09T15:27:53;3.47;;;0.40;;
73919;SDS011;62266;53.348;-1.496;2022-09-09T15:30:18;0.67;;;0.20;;
73919;SDS011;62266;53.348;-1.496;2022-09-09T15:32:44;0.22;;;0.00;;
73919;SDS011;62266;53.348;-1.496;2022-09-09T15:35:10;1.53;;;0.30;;
73919;SDS011;62266;53.348;-1.496;2022-09-09T15:37:35;0.90;;;0.20;;
73919;SDS011;62266;53.348;-1.496;2022-09-09T15:40:01;0.43;;;0.20;;
73919;SDS011;62266;53.348;-1.496;2022-09-09T15:42:26;1.20;;;0.10;;
73919;SDS011;62266;53.348;-1.496;2022-09-09T15:44:52;1.23;;;0.20;;
73919;SDS011;62266;53.348;-1.496;2022-09-09T15:47:17;1.97;;;0.37;;
73919;SDS011;62266;53.348;-1.496;2022-09-09T15:49:43;1.30;;;0.20;;
73919;SDS011;62266;53.348;-1.496;2022-09-09T15:52:09;1.97;;;0.27;;
73919;SDS011;62266;53.348;-1.496;2022-09-09T15:54:36;1.23;;;0.22;;
73919;SDS011;62266;53.348;-1.496;2022-09-09T15:57:06;0.82;;;0.10;;
73919;SDS011;62266;53.348;-1.496;2022-09-09T15:59:33;0.93;;;0.20;;
73919;SDS011;62266;53.348;-1.496;2022-09-09T16:02:00;0.88;;;0.30;;
73919;SDS011;62266;53.348;-1.496;2022-09-09T16:04:26;1.80;;;0.45;;
73919;SDS011;62266;53.348;-1.496;2022-09-09T16:07:04;1.35;;;0.30;;
73919;SDS011;62266;53.348;-1.496;2022-09-09T16:09:30;1.58;;;0.30;;
73919;SDS011;62266;53.348;-1.496;2022-09-09T16:11:59;2.50;;;0.40;;
73919;SDS011;62266;53.348;-1.496;2022-09-09T16:14:31;2.10;;;0.50;;
73919;SDS011;62266;53.348;-1.496;2022-09-09T16:16:59;1.00;;;0.30;;
73919;SDS011;62266;53.348;-1.496;2022-09-09T16:19:26;1.60;;;0.40;;
73919;SDS011;62266;53.348;-1.496;2022-09-09T16:21:51;2.97;;;0.60;;
73919;SDS011;62266;53.348;-1.496;2022-09-09T16:24:19;2.58;;;0.32;;
73919;SDS011;62266;53.348;-1.496;2022-09-09T16:26:46;1.05;;;0.30;;
73919;SDS011;62266;53.348;-1.496;2022-09-09T16:29:14;2.13;;;0.40;;
73919;SDS011;62266;53.348;-1.496;2022-09-09T16:31:41;1.30;;;0.30;;
73919;SDS011;62266;53.348;-1.496;2022-09-09T16:34:07;2.22;;;0.30;;
73919;SDS011;62266;53.348;-1.496;2022-09-09T16:36:34;1.42;;;0.45;;
73919;SDS011;62266;53.348;-1.496;2022-09-09T16:39:02;4.07;;;0.70;;
73919;SDS011;62266;53.348;-1.496;2022-09-09T16:41:30;3.00;;;0.40;;
73919;SDS011;62266;53.348;-1.496;2022-09-09T16:43:56;1.10;;;0.30;;
73919;SDS011;62266;53.348;-1.496;2022-09-09T16:46:24;1.15;;;0.40;;